Flight Track Log - Related Links

Times and Time Zones

All times are in EDT time to prevent confusion due to time zone crossing. See the UAL1177 flight status page for this flight to view local times or setup timezone preferences in your user account.

Time Position Orientation Groundspeed Altitude Reporting Facility
EDT Latitude Longitude Course Direction KTS MPH feet Rate Location/Type
Mon 05:02:00 PM 40.5712 -80.6438 282° West  Level FlightAware Approximate
Mon 05:03:00 PM 40.6008 -80.7863 288° West  Level FlightAware Approximate
Mon 05:04:00 PM 40.6323 -80.9283 285° West  Level FlightAware Approximate
Mon 05:05:00 PM 40.6545 -81.0726 285° West  Level FlightAware Approximate
Mon 05:05:52 PM 40.6140 -80.8370 285° West 339 390 15,900  Level FlightAware ADS-B
Mon 05:06:32 PM 40.6320 -80.9230 285° West 347 399 17,600 2,400 Climbing FlightAware ADS-B
Mon 05:07:17 PM 40.6530 -81.0180 286° West 352 405 19,300 2,259 Climbing FlightAware ADS-B
Mon 05:07:57 PM 40.6700 -81.0970 286° West 353 406 20,800 2,175 Climbing FlightAware ADS-B
Mon 05:08:37 PM 40.6880 -81.1820 286° West 356 410 22,200 1,950 Climbing FlightAware ADS-B
Mon 05:09:17 PM 40.7060 -81.2670 286° West 361 415 23,400 1,765 Climbing FlightAware ADS-B
Mon 05:10:02 PM 40.7240 -81.3620 284° West 367 422 24,700 1,600 Climbing FlightAware ADS-B
Mon 05:10:47 PM 40.7400 -81.4630 282° West 376 433 25,800 1,341 Climbing FlightAware ADS-B
Mon 05:11:27 PM 40.7540 -81.5530 282° West 383 441 26,600 1,275 Climbing FlightAware ADS-B
Mon 05:12:07 PM 40.7620 -81.6490 276° West 398 458 27,500 1,200 Climbing FlightAware ADS-B
Mon 05:12:52 PM 40.7700 -81.7570 276° West 404 465 28,300 1,059 Climbing FlightAware ADS-B
Mon 05:13:32 PM 40.7770 -81.8600 275° West 410 472 29,000 975 Climbing FlightAware ADS-B
Mon 05:14:12 PM 40.7850 -81.9570 276° West 416 479 29,600 1,200 Climbing FlightAware ADS-B
Mon 05:14:57 PM 40.7930 -82.0730 275° West 414 476 30,700 1,412 Climbing FlightAware ADS-B
Mon 05:15:37 PM 40.8000 -82.1710 275° West 410 472 31,600 988 Climbing FlightAware ADS-B
Mon 05:16:22 PM 40.8070 -82.2740 275° West 409 471 32,100 988 Climbing FlightAware ADS-B
Mon 05:17:02 PM 40.8150 -82.3810 276° West 406 467 33,000 1,050 Climbing FlightAware ADS-B
Mon 05:17:42 PM 40.8220 -82.4830 275° West 409 471 33,500 706 Climbing FlightAware ADS-B
Mon 05:18:27 PM 40.8290 -82.5890 275° West 412 474 34,000 353 Climbing FlightAware ADS-B
Mon 05:19:07 PM 40.8360 -82.6940 275° West 412 474 34,000  Level FlightAware ADS-B
Mon 05:19:52 PM 40.8430 -82.8000 275° West 412 474 34,000  Level FlightAware ADS-B
Mon 05:20:32 PM 40.8500 -82.8940 276° West 412 474 34,000  Level FlightAware ADS-B
Mon 05:21:12 PM 40.8570 -83.0040 275° West 412 474 34,000  Level FlightAware ADS-B
Mon 05:21:57 PM 40.8640 -83.1180 275° West 412 474 34,000  Level FlightAware ADS-B
Mon 05:22:37 PM 40.8700 -83.2130 275° West 414 476 34,000  Level FlightAware ADS-B
Mon 05:23:22 PM 40.8780 -83.3360 275° West 414 476 34,000  Level FlightAware ADS-B
Mon 05:24:02 PM 40.8840 -83.4370 275° West 416 479 34,000  Level FlightAware ADS-B
Mon 05:24:47 PM 40.8900 -83.5440 274° West 418 481 34,000  Level FlightAware ADS-B
Mon 05:25:27 PM 40.8970 -83.6510 275° West 418 481 34,000  Level FlightAware ADS-B
Mon 05:26:07 PM 40.9020 -83.7510 274° West 418 481 34,000  Level FlightAware ADS-B
Mon 05:26:52 PM 40.9090 -83.8640 275° West 418 481 34,000  Level FlightAware ADS-B
Mon 05:27:32 PM 40.9150 -83.9660 274° West 418 481 34,000  Level FlightAware ADS-B
Mon 05:28:12 PM 40.9210 -84.0690 274° West 417 480 34,000  Level FlightAware ADS-B
Mon 05:28:57 PM 40.9270 -84.1800 274° West 417 480 34,000  Level FlightAware ADS-B
Mon 05:29:37 PM 40.9320 -84.2830 274° West 416 479 34,000  Level FlightAware ADS-B
Mon 05:30:17 PM 40.9370 -84.3820 274° West 415 478 34,000  Level FlightAware ADS-B
Mon 05:31:02 PM 40.9430 -84.4990 274° West 414 476 34,000  Level FlightAware ADS-B
Mon 05:31:42 PM 40.9490 -84.6000 275° West 413 475 34,000  Level FlightAware ADS-B
Mon 05:32:22 PM 40.9540 -84.7010 274° West 413 475 34,000  Level FlightAware ADS-B
Mon 05:33:07 PM 40.9590 -84.8120 273° West 413 475 34,000  Level FlightAware ADS-B
Mon 05:33:47 PM 40.9640 -84.9130 274° West 413 475 34,000  Level FlightAware ADS-B
Mon 05:34:32 PM 40.9690 -85.0270 273° West 413 475 34,000  Level FlightAware ADS-B
Mon 05:35:12 PM 40.9740 -85.1310 274° West 415 478 34,000  Level FlightAware ADS-B
Mon 05:35:57 PM 40.9790 -85.2330 274° West 416 479 34,000  Level FlightAware ADS-B
Mon 05:36:37 PM 40.9840 -85.3420 274° West 416 479 34,000  Level FlightAware ADS-B
Mon 05:37:17 PM 40.9880 -85.4490 273° West 416 479 34,000  Level FlightAware ADS-B
Mon 05:38:02 PM 40.9930 -85.5610 273° West 416 479 34,000  Level FlightAware ADS-B
Mon 05:38:42 PM 40.9970 -85.6600 273° West 416 479 34,000  Level FlightAware ADS-B
Mon 05:39:17 PM 41.0010 -85.7530 273° West 416 479 34,000  Level FlightAware ADS-B
Mon 05:40:07 PM 41.0060 -85.8690 273° West 415 478 34,000  Level FlightAware ADS-B
Mon 05:40:47 PM 41.0100 -85.9770 273° West 414 476 34,000  Level FlightAware ADS-B
Mon 05:41:27 PM 41.0140 -86.0770 273° West 414 476 34,000  Level FlightAware ADS-B
Mon 05:42:12 PM 41.0180 -86.1910 273° West 414 476 34,000  Level FlightAware ADS-B
Mon 05:42:57 PM 41.0220 -86.3070 273° West 414 476 34,000  Level FlightAware ADS-B
Mon 05:43:32 PM 41.0250 -86.3950 273° West 415 478 34,000  Level FlightAware ADS-B
Mon 05:44:17 PM 41.0290 -86.5060 273° West 416 479 34,000  Level FlightAware ADS-B
Mon 05:45:02 PM 41.0330 -86.6170 273° West 416 479 34,000  Level FlightAware ADS-B
Mon 05:45:42 PM 41.0360 -86.7230 272° West 416 479 34,000  Level FlightAware ADS-B
Mon 05:46:27 PM 41.0400 -86.8430 273° West 416 479 34,000  Level FlightAware ADS-B
Mon 05:47:07 PM 41.0430 -86.9370 272° West 415 478 34,000  Level FlightAware ADS-B
Mon 05:47:47 PM 41.0460 -87.0390 272° West 415 478 34,000  Level FlightAware ADS-B
Mon 05:48:32 PM 41.0500 -87.1570 273° West 416 479 34,000  Level FlightAware ADS-B
Mon 05:49:12 PM 41.0520 -87.2560 272° West 416 479 34,000  Level FlightAware ADS-B
Mon 05:49:57 PM 41.0550 -87.3700 272° West 418 481 34,000 353 Level FlightAware ADS-B
Mon 05:50:37 PM 41.0580 -87.4730 272° West 422 486 34,500 825 Climbing FlightAware ADS-B
Mon 05:51:17 PM 41.0610 -87.5780 272° West 421 484 35,100 847 Climbing FlightAware ADS-B
Mon 05:52:02 PM 41.0630 -87.6910 271° West 421 484 35,700 635 Climbing FlightAware ADS-B
Mon 05:52:42 PM 41.0660 -87.7940 272° West 424 488 36,000 212 Climbing FlightAware ADS-B
Mon 05:53:27 PM 41.0690 -87.9160 272° West 425 489 36,000  Level FlightAware ADS-B
Mon 05:54:07 PM 41.0710 -88.0150 272° West 425 489 36,000  Level FlightAware ADS-B
Mon 05:54:47 PM 41.0730 -88.1220 271° West 424 488 36,000  Level FlightAware ADS-B
Mon 05:55:32 PM 41.0750 -88.2350 271° West 423 487 36,000  Level FlightAware ADS-B
Mon 05:56:12 PM 41.0770 -88.3370 272° West 423 487 36,000  Level FlightAware ADS-B
Mon 05:56:52 PM 41.0790 -88.4420 271° West 422 486 36,000  Level FlightAware ADS-B
Mon 05:57:37 PM 41.0810 -88.5620 271° West 422 486 36,000  Level FlightAware ADS-B
Mon 05:58:17 PM 41.0820 -88.6660 271° West 422 486 36,000  Level FlightAware ADS-B
Mon 05:59:02 PM 41.0840 -88.7830 271° West 423 487 36,000  Level FlightAware ADS-B
Mon 05:59:42 PM 41.0860 -88.8840 272° West 424 488 36,000  Level FlightAware ADS-B
Mon 06:00:27 PM 41.0870 -89.0030 271° West 426 490 36,000  Level FlightAware ADS-B
Mon 06:01:07 PM 41.0880 -89.1050 271° West 427 491 36,000  Level FlightAware ADS-B
Mon 06:01:47 PM 41.0900 -89.2100 271° West 428 493 36,000  Level FlightAware ADS-B
Mon 06:02:32 PM 41.0910 -89.3280 271° West 429 494 36,000  Level FlightAware ADS-B
Mon 06:03:12 PM 41.0920 -89.4300 271° West 429 494 36,000  Level FlightAware ADS-B
Mon 06:03:57 PM 41.0930 -89.5450 271° West 429 494 36,000  Level FlightAware ADS-B
Mon 06:04:37 PM 41.0930 -89.6510 270° West 429 494 36,000  Level FlightAware ADS-B
Mon 06:05:17 PM 41.0940 -89.7590 271° West 429 494 36,000  Level FlightAware ADS-B
Mon 06:06:02 PM 41.0950 -89.8780 271° West 429 494 36,000  Level FlightAware ADS-B
Mon 06:06:42 PM 41.0950 -89.9840 270° West 428 493 36,000  Level FlightAware ADS-B
Mon 06:07:27 PM 41.0960 -90.0980 271° West 427 491 36,000  Level FlightAware ADS-B
Mon 06:08:07 PM 41.0960 -90.2020 270° West 425 489 36,000  Level FlightAware ADS-B
Mon 06:08:42 PM 41.0960 -90.2890 270° West 424 488 36,000  Level FlightAware ADS-B
Mon 06:09:32 PM 41.0960 -90.4200 270° West 424 488 36,000  Level FlightAware ADS-B
Mon 06:10:12 PM 41.0960 -90.5310 270° West 424 488 36,000  Level FlightAware ADS-B
Mon 06:10:52 PM 41.0960 -90.6330 270° West 424 488 36,000  Level FlightAware ADS-B
Mon 06:11:32 PM 41.0960 -90.7360 270° West 425 489 36,000  Level FlightAware ADS-B
Mon 06:12:17 PM 41.0950 -90.8480 269° West 426 490 36,000  Level FlightAware ADS-B
Mon 06:13:02 PM 41.0950 -90.9690 270° West 427 491 36,000  Level FlightAware ADS-B
Mon 06:13:57 PM 41.0940 -91.1130 270° West 427 491 36,000  Level FlightAware ADS-B
Mon 06:14:37 PM 41.0930 -91.2130 269° West 427 491 36,000  Level FlightAware ADS-B
Mon 06:15:22 PM 41.0930 -91.3370 270° West 426 490 36,000  Level FlightAware ADS-B
Mon 06:15:57 PM 41.0920 -91.4190 269° West 426 490 36,000  Level FlightAware ADS-B
Mon 06:16:47 PM 41.0910 -91.5460 269° West 428 493 36,000  Level FlightAware ADS-B
Mon 06:17:42 PM 41.0890 -91.7020 269° West 430 495 36,000  Level FlightAware ADS-B
Mon 06:18:22 PM 41.0880 -91.8070 269° West 431 496 36,000  Level FlightAware ADS-B
Mon 06:19:17 PM 41.0860 -91.9480 269° West 432 497 36,000  Level FlightAware ADS-B
Mon 06:20:17 PM 41.0840 -92.1110 269° West 432 497 36,000  Level FlightAware ADS-B
Mon 06:20:57 PM 41.0820 -92.2110 269° West 432 497 36,000  Level FlightAware ADS-B
Mon 06:23:07 PM 41.0770 -92.5580 269° West 430 495 36,000  Level FlightAware ADS-B
Mon 06:23:47 PM 41.0750 -92.6620 269° West 429 494 36,000  Level FlightAware ADS-B
Mon 06:24:27 PM 41.0720 -92.7690 268° West 429 494 36,000  Level FlightAware ADS-B
Mon 06:25:12 PM 41.0700 -92.8870 269° West 429 494 36,000  Level FlightAware ADS-B
Mon 06:25:52 PM 41.0680 -92.9930 269° West 429 494 36,000  Level FlightAware ADS-B
Mon 06:26:32 PM 41.0650 -93.0980 268° West 430 495 36,000  Level FlightAware ADS-B
Mon 06:27:07 PM 41.0630 -93.1850 268° West 431 496 36,000  Level FlightAware ADS-B
Mon 06:27:57 PM 41.0600 -93.3200 268° West 432 497 36,000  Level FlightAware ADS-B
Mon 06:28:47 PM 41.0570 -93.4460 268° West 432 497 36,000  Level FlightAware ADS-B
Mon 06:29:32 PM 41.0540 -93.5630 268° West 433 498 36,000  Level FlightAware ADS-B
Mon 06:30:12 PM 41.0510 -93.6540 268° West 433 498 36,000  Level FlightAware ADS-B
Mon 06:30:52 PM 41.0490 -93.7440 268° West 433 498 36,000  Level FlightAware ADS-B
Mon 06:31:47 PM 41.0430 -93.9280 268° West 438 504 36,000  Level FlightAware ADS-B
Mon 06:32:37 PM 41.0390 -94.0640 268° West 437 503 36,000  Level FlightAware ADS-B
Mon 06:33:22 PM 41.0350 -94.1860 268° West 436 502 36,000  Level FlightAware ADS-B
Mon 06:34:12 PM 41.0310 -94.3060 268° West 436 502 36,000  Level FlightAware ADS-B
Mon 06:35:02 PM 41.0260 -94.4200 267° West 436 502 36,000  Level FlightAware ADS-B
Mon 06:35:42 PM 41.0230 -94.5110 268° West 436 502 36,000  Level FlightAware ADS-B
Mon 06:36:22 PM 41.0190 -94.6020 267° West 436 502 36,000  Level FlightAware ADS-B
Mon 06:37:02 PM 41.0150 -94.6920 267° West 436 502 36,000  Level FlightAware ADS-B
Mon 06:37:42 PM 41.0120 -94.7830 268° West 436 502 36,000  Level FlightAware ADS-B
Mon 06:38:22 PM 41.0080 -94.8740 267° West 436 502 36,000  Level FlightAware ADS-B
Mon 06:39:12 PM 41.0040 -94.9870 267° West 436 502 36,000  Level FlightAware ADS-B
Mon 06:39:52 PM 41.0000 -95.0780 267° West 436 502 36,000  Level FlightAware ADS-B
Mon 06:40:32 PM 40.9970 -95.1690 268° West 436 502 36,000  Level FlightAware ADS-B
Mon 06:41:12 PM 40.9930 -95.2600 267° West 436 502 36,000  Level FlightAware ADS-B
Mon 06:41:52 PM 40.9890 -95.3500 267° West 436 502 36,000  Level FlightAware ADS-B
Mon 06:42:42 PM 40.9850 -95.4640 267° West 436 502 36,000  Level FlightAware ADS-B
Mon 06:43:22 PM 40.9810 -95.5540 267° West 436 502 36,000  Level FlightAware ADS-B
Mon 06:45:52 PM 40.9570 -96.0930 267° West 36,000  Level FlightAware ADS-B
Mon 06:46:20 PM 40.9494 -96.2303 267° West 435 501 36,000  Level Minneapolis Center
Mon 06:47:22 PM 40.9417 -96.3903 266° West 434 499 36,000  Level Minneapolis Center
Mon 06:48:24 PM 40.9328 -96.5511 266° West 435 501 36,000  Level Minneapolis Center
Mon 06:49:26 PM 40.9219 -96.7450 266° West 438 504 36,000  Level Minneapolis Center
Mon 06:50:28 PM 40.8931 -96.9036 257° West 443 510 36,000  Level Minneapolis Center
Mon 06:51:30 PM 40.8642 -97.0644 257° West 449 517 36,000  Level Minneapolis Center
Mon 06:52:32 PM 40.8339 -97.2236 256° West 448 516 36,000  Level Minneapolis Center
Mon 06:53:34 PM 40.8017 -97.3956 256° West 449 517 36,000  Level Minneapolis Center
Mon 06:54:36 PM 40.7719 -97.5561 256° West 449 517 36,000  Level Minneapolis Center
Mon 06:55:39 PM 40.7414 -97.7169 256° West 450 518 36,000  Level Minneapolis Center
Mon 06:56:41 PM 40.7108 -97.8758 256° West 448 516 36,000  Level Minneapolis Center
Mon 06:57:43 PM 40.6797 -98.0358 256° West 449 517 36,000  Level Minneapolis Center
Mon 06:58:45 PM 40.6433 -98.2281 256° West 448 516 36,000  Level Minneapolis Center
Mon 06:59:47 PM 40.6119 -98.3883 256° West 449 517 36,000  Level Minneapolis Center
Mon 07:00:49 PM 40.6142 -98.5506 271° West 445 512 36,000  Level Minneapolis Center
Mon 07:01:51 PM 40.6292 -98.7122 277° West 442 509 36,000  Level Minneapolis Center
Mon 07:02:53 PM 40.6433 -98.8736 277° West 442 509 36,000  Level Minneapolis Center
Mon 07:03:55 PM 40.6564 -99.0358 276° West 442 509 36,000  Level Minneapolis Center
Mon 07:05:17 PM 40.6767 -99.2600 277° West 439 505 36,000  Level Denver Center
Mon 07:06:19 PM 40.6897 -99.4206 276° West 438 504 36,000  Level Denver Center
Mon 07:07:21 PM 40.7039 -99.5806 277° West 439 505 36,000  Level Denver Center
Mon 07:08:23 PM 40.7161 -99.7417 276° West 440 506 36,000  Level Denver Center
Mon 07:09:25 PM 40.7294 -99.9133 276° West 444 511 36,000  Level Denver Center
Mon 07:10:27 PM 40.7447 -100.0953 276° West 447 514 36,000  Level Denver Center
Mon 07:16:24 PM 40.7172 -101.0800 276° West 453 521 36,000  Level FlightAware ADS-B
Mon 07:16:54 PM 40.7029 -101.1610 257° West 454 522 36,000  Level FlightAware ADS-B
Mon 07:17:25 PM 40.6882 -101.2450 257° West 455 524 36,000  Level FlightAware ADS-B
Mon 07:17:55 PM 40.6740 -101.3260 257° West 455 524 36,000  Level FlightAware ADS-B
Mon 07:18:26 PM 40.6598 -101.4080 257° West 455 524 36,000  Level FlightAware ADS-B
Mon 07:18:56 PM 40.6455 -101.4890 257° West 454 522 36,000  Level FlightAware ADS-B
Mon 07:19:26 PM 40.6309 -101.5700 257° West 455 524 36,000  Level FlightAware ADS-B
Mon 07:19:57 PM 40.6161 -101.6530 257° West 456 525 36,000  Level FlightAware ADS-B
Mon 07:20:31 PM 40.5995 -101.7450 257° West 456 525 36,000  Level FlightAware ADS-B
Mon 07:21:01 PM 40.5847 -101.8260 256° West 456 525 36,000  Level FlightAware ADS-B
Mon 07:21:31 PM 40.5699 -101.9070 257° West 456 525 36,000  Level FlightAware ADS-B
Mon 07:22:02 PM 40.5547 -101.9910 257° West 458 527 36,000  Level FlightAware ADS-B
Mon 07:22:33 PM 40.5396 -102.0730 256° West 458 527 36,000  Level FlightAware ADS-B
Mon 07:23:03 PM 40.5244 -102.1540 256° West 459 528 36,000  Level FlightAware ADS-B
Mon 07:23:33 PM 40.5094 -102.2360 256° West 458 527 36,000  Level FlightAware ADS-B
Mon 07:24:05 PM 40.4935 -102.3220 256° West 458 527 36,000  Level FlightAware ADS-B
Mon 07:24:38 PM 40.4775 -102.4090 256° West 457 526 36,000  Level FlightAware ADS-B
Mon 07:25:08 PM 40.4623 -102.4910 256° West 457 526 36,000  Level FlightAware ADS-B
Mon 07:25:38 PM 40.4473 -102.5720 256° West 457 526 36,000 -1,082 Level FlightAware ADS-B
Mon 07:26:09 PM 40.4319 -102.6540 256° West 456 525 34,900 -2,656 Descending FlightAware ADS-B
Mon 07:26:39 PM 40.4168 -102.7350 256° West 463 533 33,300 -2,951 Descending FlightAware ADS-B
Mon 07:27:10 PM 40.4007 -102.8200 256° West 462 532 31,900 -2,459 Descending FlightAware ADS-B
Mon 07:27:40 PM 40.3855 -102.9010 256° West 454 522 30,800 -2,200 Descending FlightAware ADS-B
Mon 07:28:10 PM 40.3703 -102.9810 256° West 446 513 29,700 -2,066 Descending FlightAware ADS-B
Mon 07:28:41 PM 40.3553 -103.0610 256° West 437 503 28,700 -2,066 Descending FlightAware ADS-B
Mon 07:29:11 PM 40.3405 -103.1370 256° West 428 493 27,600 -2,100 Descending FlightAware ADS-B
Mon 07:29:41 PM 40.3261 -103.2120 256° West 420 483 26,600 -1,967 Descending FlightAware ADS-B
Mon 07:30:12 PM 40.3119 -103.2860 256° West 414 476 25,600 -2,066 Descending FlightAware ADS-B
Mon 07:30:42 PM 40.2976 -103.3590 256° West 408 470 24,500 -2,100 Descending FlightAware ADS-B
Mon 07:31:12 PM 40.2837 -103.4300 256° West 402 463 23,500 -2,000 Descending FlightAware ADS-B
Mon 07:31:42 PM 40.2700 -103.5000 256° West 396 456 22,500 -2,066 Descending FlightAware ADS-B
Mon 07:32:13 PM 40.2562 -103.5710 256° West 390 449 21,400 -1,742 Descending FlightAware ADS-B
Mon 07:32:44 PM 40.2426 -103.6400 256° West 377 434 20,700 -1,548 Descending FlightAware ADS-B
Mon 07:33:15 PM 40.2293 -103.7070 255° West 370 426 19,800 -1,770 Descending FlightAware ADS-B
Mon 07:33:45 PM 40.2164 -103.7720 255° West 364 419 18,900 -1,368 Descending FlightAware ADS-B
Mon 07:34:12 PM 40.2054 -103.8280 256° West 349 402 18,500 -857 Descending FlightAware ADS-B
Mon 07:34:20 PM 40.2034 -103.8440 261° West 340 391 18,400 -947 Descending FlightAware ADS-B
Mon 07:34:31 PM 40.2025 -103.8670 267° West 332 382 18,200 -1,412 Descending FlightAware ADS-B
Mon 07:34:37 PM 40.2030 -103.8800 273° West 329 379 18,000 -1,650 Descending FlightAware ADS-B
Mon 07:35:11 PM 40.2094 -103.9450 277° West 321 369 17,100 -1,688 Descending FlightAware ADS-B
Mon 07:35:41 PM 40.2148 -104.0030 277° West 318 366 16,200 -1,770 Descending FlightAware ADS-B
Mon 07:36:12 PM 40.2204 -104.0610 277° West 320 368 15,300 -1,645 Descending FlightAware ADS-B
Mon 07:36:43 PM 40.2258 -104.1200 277° West 317 365 14,500 -1,585 Descending FlightAware ADS-B
Mon 07:37:05 PM 40.2298 -104.1630 277° West 313 360 13,900 -1,472 Descending FlightAware ADS-B
Mon 07:37:36 PM 40.2350 -104.2200 277° West 309 356 13,200 -1,475 Descending FlightAware ADS-B
Mon 07:38:06 PM 40.2399 -104.2750 277° West 306 352 12,400 -1,200 Descending FlightAware ADS-B
Mon 07:38:36 PM 40.2451 -104.3290 277° West 289 333 12,000 -643 Descending FlightAware ADS-B
Mon 07:39:02 PM 40.2494 -104.3720 277° West 276 318 11,800 -600 Descending FlightAware ADS-B
Mon 07:39:06 PM 40.2499 -104.3800 275° West 273 314 11,700 -667 Descending FlightAware ADS-B
Mon 07:39:11 PM 40.2497 -104.3870 268° West 270 311 11,700  Level FlightAware ADS-B
Mon 07:39:15 PM 40.2490 -104.3930 261° West 268 308 11,700 -857 Level FlightAware ADS-B
Mon 07:39:18 PM 40.2478 -104.3990 255° West 266 306 11,600 -1,500 Descending FlightAware ADS-B
Mon 07:39:23 PM 40.2459 -104.4050 247° West 266 306 11,500 -750 Descending FlightAware ADS-B
Mon 07:39:26 PM 40.2443 -104.4090 242° Southwest 264 304 11,500 -857 Level FlightAware ADS-B
Mon 07:39:44 PM 40.2336 -104.4340 241° Southwest 258 297 11,200 -1,000 Descending FlightAware ADS-B
Mon 07:40:14 PM 40.2155 -104.4740 239° Southwest 254 292 10,700 -1,000 Descending FlightAware ADS-B
Mon 07:40:44 PM 40.1970 -104.5130 238° Southwest 249 287 10,200 -1,000 Descending FlightAware ADS-B
Mon 07:41:02 PM 40.1861 -104.5370 239° Southwest 246 283 9,900 -1,091 Descending FlightAware ADS-B
Mon 07:41:06 PM 40.1838 -104.5410 233° Southwest 245 282 9,800 -1,500 Descending FlightAware ADS-B
Mon 07:41:10 PM 40.1807 -104.5450 225° Southwest 246 283 9,700 -1,500 Descending FlightAware ADS-B
Mon 07:41:14 PM 40.1775 -104.5490 224° Southwest 245 282 9,600 -857 Descending FlightAware ADS-B
Mon 07:41:17 PM 40.1743 -104.5520 216° Southwest 246 283 9,600 -667 Level FlightAware ADS-B
Mon 07:41:23 PM 40.1687 -104.5560 209° Southwest 245 282 9,500 -1,143 Descending FlightAware ADS-B
Mon 07:41:38 PM 40.1535 -104.5670 209° Southwest 245 282 9,200 -1,059 Descending FlightAware ADS-B
Mon 07:41:57 PM 40.1354 -104.5800 209° Southwest 242 278 8,900 -1,059 Descending FlightAware ADS-B
Mon 07:42:12 PM 40.1204 -104.5910 209° Southwest 241 277 8,600 -1,400 Descending FlightAware ADS-B
Mon 07:42:27 PM 40.1056 -104.6020 210° Southwest 243 280 8,200 -1,400 Descending FlightAware ADS-B
Mon 07:42:42 PM 40.0908 -104.6130 210° Southwest 242 278 7,900 -968 Descending FlightAware ADS-B
Mon 07:42:58 PM 40.0761 -104.6240 210° Southwest 237 273 7,700 -621 Descending FlightAware ADS-B
Mon 07:43:11 PM 40.0637 -104.6330 209° Southwest 231 266 7,600 -667 Descending FlightAware ADS-B
Mon 07:43:25 PM 40.0513 -104.6430 212° Southwest 220 253 7,400 -720 Descending FlightAware ADS-B
Mon 07:43:36 PM 40.0417 -104.6500 209° Southwest 213 245 7,300 -800 Descending FlightAware ADS-B
Mon 07:43:40 PM 40.0384 -104.6520 205° Southwest 212 244 7,200 -1,091 Descending FlightAware ADS-B
Mon 07:43:47 PM 40.0319 -104.6560 205° Southwest 211 243 7,100 -818 Descending FlightAware ADS-B
Mon 07:44:02 PM 40.0193 -104.6660 211° Southwest 202 232 6,900 -667 Descending FlightAware ADS-B
Mon 07:44:14 PM 40.0099 -104.6730 210° Southwest 196 226 6,800 -207 Descending FlightAware ADS-B
Mon 07:44:31 PM 39.9975 -104.6830 212° Southwest 187 215 6,800  Level FlightAware ADS-B
Mon 07:44:34 PM 39.9946 -104.6840 195° South 186 214 6,800  Level FlightAware ADS-B
Mon 07:44:38 PM 39.9919 -104.6860 210° Southwest 186 214 6,800  Level FlightAware ADS-B
Mon 07:44:43 PM 39.9880 -104.6870 191° South 185 213 6,800 -545 Level FlightAware ADS-B
Mon 07:44:49 PM 39.9826 -104.6870 180° South 186 214 6,700 -1,333 Descending FlightAware ADS-B
Mon 07:44:52 PM 39.9800 -104.6870 180° South 188 216 6,600 -1,091 Descending FlightAware ADS-B
Mon 07:45:00 PM 39.9727 -104.6860 174° South 182 209 6,500 -923 Descending FlightAware ADS-B
Mon 07:45:05 PM 39.9687 -104.6860 180° South 178 205 6,400 -800 Descending FlightAware ADS-B
Mon 07:45:15 PM 39.9611 -104.6860 180° South 171 197 6,300 -571 Descending FlightAware ADS-B
Mon 07:45:26 PM 39.9520 -104.6860 180° South 171 197 6,200 -600 Descending FlightAware ADS-B
Mon 07:45:35 PM 39.9455 -104.6860 180° South 171 197 6,100 -706 Descending FlightAware ADS-B
Mon 07:45:43 PM 39.9392 -104.6860 180° South 167 192 6,000 -1,043 Descending FlightAware ADS-B
Mon 07:45:58 PM 39.9272 -104.6860 180° South 168 193 5,700 -889 Descending FlightAware ADS-B
Mon 07:46:10 PM 39.9182 -104.6870 185° South 165 190 5,600 -783 Descending FlightAware ADS-B
Mon 07:46:21 PM 39.9099 -104.6870 180° South 162 186 5,400 -947 Descending FlightAware ADS-B
Mon 07:46:29 PM 39.9035 -104.6870 180° South 166 191 5,300 -444 Descending FlightAware ADS-B
Mon 07:46:48 PM 39.8892 -104.6870 180° South 168 193 5,200 -316 Descending FlightAware ADS-B

Login

Don't have an account? Register now (free) for customized features, flight alerts, and more!